createdAt,value
2022-11-24T00:01:28.481Z,64.17
2022-11-24T00:03:58.805Z,64.28
2022-11-24T00:06:28.121Z,64.83
2022-11-24T00:08:58.488Z,64.38
2022-11-24T00:11:29.082Z,64.05
2022-11-24T00:13:59.065Z,64.52
2022-11-24T00:16:29.495Z,64.95
2022-11-24T00:18:59.731Z,64.19
2022-11-24T00:21:30.060Z,64.78
2022-11-24T00:24:01.008Z,64.51
2022-11-24T00:26:31.035Z,64.08
2022-11-24T00:29:01.083Z,63.81
2022-11-24T00:31:32.003Z,64.90
2022-11-24T00:34:02.252Z,65.26
2022-11-24T00:36:32.798Z,65.33
2022-11-24T00:39:05.110Z,65.10
2022-11-24T00:41:33.860Z,64.73
2022-11-24T00:44:02.583Z,63.85
2022-11-24T00:46:31.389Z,63.41
2022-11-24T00:49:00.507Z,63.60
2022-11-24T00:51:30.412Z,62.77
2022-11-24T00:53:59.668Z,64.22
2022-11-24T00:56:30.630Z,64.83
2022-11-24T00:58:59.418Z,63.75
2022-11-24T01:01:31.164Z,63.98
2022-11-24T01:04:01.539Z,64.38
2022-11-24T01:06:32.694Z,64.26
2022-11-24T01:09:01.447Z,63.08
2022-11-24T01:11:52.408Z,63.81
2022-11-24T01:14:21.776Z,61.49
2022-11-24T01:16:50.160Z,63.24
2022-11-24T01:19:19.192Z,63.37
2022-11-24T01:21:48.119Z,62.51
2022-11-24T01:24:17.120Z,62.00
2022-11-24T01:26:47.084Z,64.18
2022-11-24T01:29:15.595Z,63.44
2022-11-24T01:31:44.068Z,63.49
2022-11-24T01:34:13.089Z,64.46
2022-11-24T01:36:41.558Z,64.45
2022-11-24T01:39:09.908Z,63.21
2022-11-24T01:41:38.365Z,63.26
2022-11-24T01:44:24.870Z,66.03
2022-11-24T01:46:58.512Z,64.15
2022-11-24T01:49:33.471Z,63.69
2022-11-24T01:52:08.829Z,61.94
2022-11-24T01:54:40.243Z,61.99
2022-11-24T01:57:12.109Z,63.16
2022-11-24T01:59:42.444Z,64.21
2022-11-24T02:02:12.211Z,63.62
2022-11-24T02:04:41.881Z,63.28
2022-11-24T02:07:10.664Z,63.85
2022-11-24T02:09:44.355Z,64.22
2022-11-24T02:12:13.072Z,64.24
2022-11-24T02:14:45.645Z,62.42
2022-11-24T02:17:14.310Z,62.69
2022-11-24T02:19:50.328Z,62.10
2022-11-24T02:22:28.606Z,63.31
2022-11-24T02:25:02.526Z,62.56
2022-11-24T02:27:33.686Z,60.90
2022-11-24T02:30:02.620Z,60.76
2022-11-24T02:32:34.380Z,60.52
2022-11-24T02:35:05.146Z,61.38
2022-11-24T02:37:33.620Z,59.40
2022-11-24T02:40:02.083Z,60.94
2022-11-24T02:42:38.354Z,60.71
2022-11-24T02:45:10.387Z,61.87
2022-11-24T02:47:38.947Z,60.57
2022-11-24T02:50:07.735Z,62.03
2022-11-24T02:52:36.326Z,61.49
2022-11-24T02:55:04.752Z,61.40
2022-11-24T02:57:34.432Z,62.70
2022-11-24T03:00:03.103Z,62.84
2022-11-24T03:02:34.029Z,60.26
2022-11-24T03:05:02.173Z,59.60
2022-11-24T03:07:32.356Z,59.41
2022-11-24T03:10:01.065Z,60.13
2022-11-24T03:12:29.202Z,60.94
2022-11-24T03:14:59.163Z,61.21
2022-11-24T03:17:27.973Z,61.17
2022-11-24T03:20:00.116Z,61.15
2022-11-24T03:22:31.851Z,62.04
2022-11-24T03:25:00.449Z,62.04
2022-11-24T03:27:28.979Z,62.81
2022-11-24T03:29:58.894Z,62.26
2022-11-24T03:32:27.548Z,62.36
2022-11-24T03:34:55.742Z,64.61
2022-11-24T03:37:24.356Z,63.22
2022-11-24T03:39:52.465Z,63.38
2022-11-24T03:42:21.222Z,63.38
2022-11-24T03:44:50.072Z,62.87
2022-11-24T03:47:22.517Z,63.27
2022-11-24T03:49:53.370Z,61.84
2022-11-24T03:52:21.862Z,62.12
2022-11-24T03:54:50.404Z,61.10
2022-11-24T03:57:18.678Z,60.40
2022-11-24T03:59:47.434Z,59.01
2022-11-24T04:02:16.110Z,59.43
2022-11-24T04:04:50.770Z,59.66
2022-11-24T04:07:19.396Z,59.29
2022-11-24T04:09:47.576Z,59.54
2022-11-24T04:12:33.622Z,59.39
2022-11-24T04:15:02.131Z,58.97
2022-11-24T04:17:32.650Z,59.82
2022-11-24T04:20:02.299Z,59.85
2022-11-24T04:22:31.577Z,62.03
2022-11-24T04:25:00.039Z,61.36
2022-11-24T04:27:28.606Z,61.02
2022-11-24T04:29:57.043Z,60.33
2022-11-24T04:32:25.934Z,61.93
2022-11-24T04:34:54.827Z,59.86
2022-11-24T04:37:24.747Z,61.14
2022-11-24T04:39:55.110Z,61.21
2022-11-24T04:42:23.516Z,61.98
2022-11-24T04:44:51.928Z,63.45
2022-11-24T04:47:21.616Z,63.02
2022-11-24T04:49:50.353Z,62.68
2022-11-24T04:52:19.652Z,62.39
2022-11-24T04:54:49.948Z,62.38
2022-11-24T04:57:19.781Z,64.34
2022-11-24T04:59:48.353Z,65.49
2022-11-24T05:02:17.162Z,64.33
2022-11-24T05:04:47.457Z,63.92
2022-11-24T05:07:19.168Z,62.38
2022-11-24T05:10:06.688Z,61.73
2022-11-24T05:12:35.271Z,61.08
2022-11-24T05:15:04.674Z,64.82
2022-11-24T05:17:35.524Z,62.39
2022-11-24T05:20:04.877Z,62.75
2022-11-24T05:22:33.617Z,63.19
2022-11-24T05:25:03.648Z,62.02
2022-11-24T05:27:32.194Z,60.20
2022-11-24T05:30:00.674Z,61.45
2022-11-24T05:32:29.414Z,62.57
2022-11-24T05:34:58.375Z,62.75
2022-11-24T05:37:26.898Z,62.77
2022-11-24T05:39:55.801Z,62.52
2022-11-24T05:42:47.749Z,61.04
2022-11-24T05:45:18.700Z,64.40
2022-11-24T05:47:51.568Z,62.91
2022-11-24T05:50:22.243Z,63.51
2022-11-24T05:52:51.988Z,64.43
2022-11-24T05:55:20.833Z,62.64
2022-11-24T05:57:50.684Z,62.75
2022-11-24T06:00:20.275Z,61.87
2022-11-24T06:02:57.317Z,60.54
2022-11-24T06:05:30.219Z,60.32
2022-11-24T06:08:00.784Z,61.29
2022-11-24T06:10:30.845Z,59.83
2022-11-24T06:13:00.869Z,62.31
2022-11-24T06:15:29.303Z,62.74
2022-11-24T06:17:58.412Z,62.33
2022-11-24T06:20:32.292Z,60.55
2022-11-24T06:23:02.018Z,62.26
2022-11-24T06:25:30.897Z,61.14
2022-11-24T06:28:04.043Z,61.93
2022-11-24T06:30:32.569Z,62.63
2022-11-24T06:33:01.309Z,63.08
2022-11-24T06:35:29.891Z,62.00
2022-11-24T06:37:58.054Z,62.37
2022-11-24T06:40:26.588Z,63.15
2022-11-24T06:42:55.078Z,62.35
2022-11-24T06:45:25.033Z,61.75
2022-11-24T06:47:55.142Z,59.04
2022-11-24T06:50:25.221Z,58.91
2022-11-24T06:52:56.319Z,58.64
2022-11-24T06:55:24.696Z,59.27
2022-11-24T06:57:52.911Z,58.78
2022-11-24T07:00:21.656Z,60.67
2022-11-24T07:02:51.648Z,62.06
2022-11-24T07:05:20.291Z,61.51
2022-11-24T07:07:50.779Z,60.03
2022-11-24T07:10:20.208Z,58.07
2022-11-24T07:12:48.831Z,58.17
2022-11-24T07:15:17.521Z,61.26
2022-11-24T07:17:45.992Z,61.02
2022-11-24T07:20:15.582Z,62.82
2022-11-24T07:22:43.978Z,60.47
2022-11-24T07:25:14.015Z,61.40
2022-11-24T07:27:42.676Z,60.52
2022-11-24T07:30:11.079Z,63.65
2022-11-24T07:32:39.283Z,60.96
2022-11-24T07:35:08.458Z,61.87
2022-11-24T07:37:38.514Z,62.35
2022-11-24T07:40:08.213Z,62.22
2022-11-24T07:42:36.709Z,62.37
2022-11-24T07:45:05.604Z,62.95
2022-11-24T07:47:34.110Z,63.19
2022-11-24T07:50:02.209Z,63.70
2022-11-24T07:52:31.447Z,62.09
2022-11-24T07:55:01.150Z,63.77
2022-11-24T07:57:29.976Z,60.95
2022-11-24T07:59:58.468Z,61.70
2022-11-24T08:02:26.648Z,63.27
2022-11-24T08:04:55.178Z,62.11
2022-11-24T08:07:23.898Z,62.31
2022-11-24T08:09:52.458Z,63.01
2022-11-24T08:12:22.905Z,63.59
2022-11-24T08:14:52.795Z,63.32
2022-11-24T08:17:21.418Z,61.91
2022-11-24T08:19:49.825Z,60.34
2022-11-24T08:22:18.405Z,62.24
2022-11-24T08:24:48.917Z,62.26
2022-11-24T08:27:17.545Z,62.47
2022-11-24T08:29:47.670Z,60.85
2022-11-24T08:32:21.956Z,60.16
2022-11-24T08:34:52.110Z,60.34
2022-11-24T08:37:20.861Z,60.60
2022-11-24T08:39:49.027Z,62.21
2022-11-24T08:42:17.567Z,62.34
2022-11-24T08:44:47.155Z,63.76
2022-11-24T08:47:15.667Z,62.50
2022-11-24T08:49:44.142Z,61.61
2022-11-24T08:52:12.447Z,61.83
2022-11-24T08:54:41.073Z,61.86
2022-11-24T08:57:09.515Z,62.82
2022-11-24T08:59:38.008Z,63.18
2022-11-24T09:02:07.988Z,64.32
2022-11-24T09:04:36.681Z,62.59
2022-11-24T09:07:05.423Z,62.06
2022-11-24T09:09:33.715Z,62.35
2022-11-24T09:12:03.103Z,60.37
2022-11-24T09:14:31.980Z,62.09
2022-11-24T09:17:00.555Z,61.91
2022-11-24T09:19:30.414Z,62.10
2022-11-24T09:21:59.005Z,61.23
2022-11-24T09:24:28.381Z,62.60
2022-11-24T09:26:57.185Z,61.46
2022-11-24T09:29:25.798Z,62.16
2022-11-24T09:31:54.321Z,63.99
2022-11-24T09:34:22.771Z,62.70
2022-11-24T09:36:52.346Z,62.47
2022-11-24T09:39:20.857Z,62.94
2022-11-24T09:42:05.487Z,62.82
2022-11-24T09:44:49.979Z,62.55
2022-11-24T09:47:30.219Z,58.74
2022-11-24T09:50:04.383Z,59.06
2022-11-24T09:52:43.531Z,61.10
2022-11-24T09:55:26.693Z,59.99
2022-11-24T09:58:06.113Z,60.30
2022-11-24T10:00:35.684Z,60.21
2022-11-24T10:03:04.661Z,59.95
2022-11-24T10:05:37.398Z,60.21
2022-11-24T10:08:20.864Z,59.92
2022-11-24T10:10:56.971Z,58.77
2022-11-24T10:13:38.994Z,59.80
2022-11-24T10:16:18.390Z,62.02
2022-11-24T10:19:03.451Z,62.02
2022-11-24T10:21:52.983Z,61.44
2022-11-24T10:24:37.209Z,61.73
2022-11-24T10:27:17.124Z,62.01
2022-11-24T10:29:50.033Z,63.63
2022-11-24T10:32:23.489Z,61.44
2022-11-24T10:34:53.717Z,61.60
2022-11-24T10:37:28.489Z,62.18
2022-11-24T10:40:33.053Z,61.82
2022-11-24T10:43:01.192Z,60.52
2022-11-24T10:45:30.995Z,61.73
2022-11-24T10:48:00.643Z,60.40
2022-11-24T10:50:33.679Z,60.46
2022-11-24T10:53:11.995Z,62.35
2022-11-24T10:56:04.847Z,61.38
2022-11-24T10:58:54.031Z,60.84
2022-11-24T11:01:49.816Z,61.22
2022-11-24T11:04:21.624Z,60.48
2022-11-24T11:06:50.894Z,61.96
2022-11-24T11:09:21.651Z,62.61
2022-11-24T11:11:55.566Z,62.08
2022-11-24T11:14:40.242Z,60.04
2022-11-24T11:17:35.352Z,60.30
2022-11-24T11:20:06.859Z,61.94
2022-11-24T11:22:39.150Z,61.59
2022-11-24T11:25:20.327Z,61.02
2022-11-24T11:27:51.052Z,60.99
2022-11-24T11:36:16.983Z,62.27
2022-11-24T11:38:48.412Z,62.74
2022-11-24T11:41:21.789Z,60.80
2022-11-24T11:44:03.371Z,62.49
2022-11-24T11:46:33.926Z,63.78
2022-11-24T11:49:02.745Z,63.61
2022-11-24T11:51:50.199Z,62.53
2022-11-24T11:54:34.150Z,63.14
2022-11-24T11:57:12.042Z,63.76
2022-11-24T11:59:59.283Z,63.97
2022-11-24T12:02:56.704Z,62.73
2022-11-24T12:05:32.851Z,62.07
2022-11-24T12:08:21.010Z,60.96
2022-11-24T12:10:58.909Z,61.10
2022-11-24T12:14:03.409Z,61.71
2022-11-24T12:16:45.522Z,61.17
2022-11-24T12:19:29.160Z,60.22
2022-11-24T12:22:07.816Z,61.23
2022-11-24T12:24:41.830Z,61.06
2022-11-24T12:27:22.562Z,60.20
2022-11-24T12:30:06.641Z,59.76
2022-11-24T12:33:00.088Z,60.76
2022-11-24T12:35:38.415Z,58.66
2022-11-24T12:38:33.126Z,58.60
2022-11-24T12:41:43.091Z,59.56
2022-11-24T12:44:28.976Z,58.97
2022-11-24T12:47:04.878Z,60.76
2022-11-24T12:49:42.883Z,59.93
2022-11-24T12:52:22.492Z,61.81
2022-11-24T12:54:51.006Z,60.79
2022-11-24T12:57:26.643Z,62.76
2022-11-24T13:00:02.886Z,60.60
2022-11-24T13:02:46.496Z,59.93
2022-11-24T13:05:23.535Z,59.73
2022-11-24T13:07:58.846Z,59.77
2022-11-24T13:13:31.524Z,61.33
2022-11-24T13:19:15.312Z,60.80
2022-11-24T13:22:04.260Z,59.15
2022-11-24T13:24:37.064Z,58.03
2022-11-24T13:27:43.032Z,59.57
2022-11-24T13:30:54.353Z,59.31
2022-11-24T13:33:34.530Z,59.07
2022-11-24T13:36:31.843Z,60.16
2022-11-24T13:39:01.263Z,58.41
2022-11-24T13:42:42.922Z,60.19
2022-11-24T13:45:03.051Z,60.67
2022-11-24T13:47:44.264Z,60.68
2022-11-24T13:50:46.994Z,59.97
2022-11-24T13:53:23.449Z,58.68
2022-11-24T13:55:59.332Z,59.37
2022-11-24T13:58:37.518Z,59.10
2022-11-24T14:01:16.215Z,58.81
2022-11-24T14:06:49.600Z,60.73
2022-11-24T14:09:27.021Z,59.62
2022-11-24T14:12:00.507Z,59.35
2022-11-24T14:14:32.693Z,59.50
2022-11-24T14:20:44.746Z,60.81
2022-11-24T14:23:14.802Z,59.42
2022-11-24T14:25:50.362Z,61.54
2022-11-24T14:28:30.534Z,59.50
2022-11-24T14:31:09.706Z,59.79
2022-11-24T14:33:38.334Z,61.05
2022-11-24T14:36:06.735Z,60.46
2022-11-24T14:38:36.529Z,60.15
2022-11-24T14:41:17.900Z,59.54
2022-11-24T14:43:46.435Z,61.00
2022-11-24T14:46:21.330Z,61.62
2022-11-24T14:49:08.961Z,59.85
2022-11-24T14:51:44.060Z,58.88
2022-11-24T14:54:20.152Z,60.08
2022-11-24T14:57:03.530Z,61.13
2022-11-24T14:59:36.218Z,59.61
2022-11-24T15:02:24.878Z,59.51
2022-11-24T15:05:21.132Z,59.61
2022-11-24T15:07:51.580Z,59.98
2022-11-24T15:10:30.543Z,60.91
2022-11-24T15:13:04.488Z,61.15
2022-11-24T15:15:36.137Z,60.24
2022-11-24T15:18:06.715Z,57.92
2022-11-24T15:20:37.526Z,59.92
2022-11-24T15:23:26.714Z,58.91
2022-11-24T15:25:57.588Z,59.68
2022-11-24T15:28:26.884Z,59.50
2022-11-24T15:30:56.624Z,60.56
2022-11-24T15:33:25.129Z,60.02
2022-11-24T15:35:53.336Z,61.70
2022-11-24T15:38:22.585Z,59.03
2022-11-24T15:40:53.394Z,58.13
2022-11-24T15:43:31.096Z,59.04
2022-11-24T15:46:00.682Z,59.92
2022-11-24T15:48:30.071Z,58.71
2022-11-24T15:50:59.882Z,58.53
2022-11-24T15:53:32.188Z,60.19
2022-11-24T15:56:02.671Z,59.95
2022-11-24T15:58:32.567Z,58.79
2022-11-24T16:01:01.294Z,58.77
2022-11-24T16:03:47.598Z,58.82
2022-11-24T16:06:24.532Z,58.14
2022-11-24T16:08:53.824Z,59.77
2022-11-24T16:11:22.405Z,58.98
2022-11-24T16:13:54.228Z,57.98
2022-11-24T16:16:25.015Z,58.98
2022-11-24T16:18:54.149Z,58.68
2022-11-24T16:21:24.459Z,58.95
2022-11-24T16:23:53.490Z,59.60
2022-11-24T16:26:30.437Z,60.21
2022-11-24T16:29:00.335Z,60.98
2022-11-24T16:31:29.008Z,58.57
2022-11-24T16:33:57.458Z,59.46
2022-11-24T16:36:26.239Z,60.40
2022-11-24T16:38:54.699Z,58.15
2022-11-24T16:41:23.128Z,59.08
2022-11-24T16:43:51.302Z,60.88
2022-11-24T16:46:22.853Z,59.04
2022-11-24T16:48:53.238Z,58.90
2022-11-24T16:51:24.499Z,58.49
2022-11-24T16:53:59.083Z,57.80
2022-11-24T16:56:28.750Z,59.15
2022-11-24T16:58:57.813Z,58.48
2022-11-24T17:01:27.799Z,57.98
2022-11-24T17:03:56.352Z,58.10
2022-11-24T17:06:24.837Z,56.44
2022-11-24T17:08:54.297Z,57.52
2022-11-24T17:11:24.931Z,58.52
2022-11-24T17:13:55.985Z,57.59
2022-11-24T17:16:31.701Z,57.86
2022-11-24T17:19:00.268Z,58.11
2022-11-24T17:21:29.325Z,57.76
2022-11-24T17:24:00.546Z,59.87
2022-11-24T17:26:29.954Z,59.40
2022-11-24T17:28:58.764Z,58.17
2022-11-24T17:31:28.885Z,58.27
2022-11-24T17:34:00.353Z,58.82
2022-11-24T17:36:34.305Z,59.73
2022-11-24T17:39:04.589Z,59.51
2022-11-24T17:41:34.562Z,59.29
2022-11-24T17:44:03.065Z,59.61
2022-11-24T17:46:31.883Z,61.71
2022-11-24T17:49:01.882Z,60.67
2022-11-24T17:51:30.550Z,59.36
2022-11-24T17:53:59.127Z,60.47
2022-11-24T17:56:28.978Z,59.12
2022-11-24T17:58:59.297Z,58.86
2022-11-24T18:01:30.323Z,57.52
2022-11-24T18:03:59.913Z,56.61
2022-11-24T18:06:30.021Z,59.05
2022-11-24T18:08:59.261Z,58.24
2022-11-24T18:11:31.648Z,59.02
2022-11-24T18:14:03.294Z,58.68
2022-11-24T18:16:33.192Z,59.27
2022-11-24T18:19:11.048Z,57.96
2022-11-24T18:21:43.887Z,56.38
2022-11-24T18:24:14.028Z,57.66
2022-11-24T18:26:43.897Z,58.08
2022-11-24T18:29:13.134Z,58.77
2022-11-24T18:31:41.786Z,57.89
2022-11-24T18:34:10.551Z,57.49
2022-11-24T18:36:39.034Z,56.28
2022-11-24T18:39:09.496Z,57.55
2022-11-24T18:41:38.264Z,59.01
2022-11-24T18:44:08.675Z,59.25
2022-11-24T18:46:37.628Z,59.24
2022-11-24T18:49:07.354Z,57.55
2022-11-24T18:51:36.346Z,58.40
2022-11-24T18:54:05.617Z,58.05
2022-11-24T18:56:35.619Z,58.57
2022-11-24T18:59:04.168Z,60.19
2022-11-24T19:01:32.582Z,58.46
2022-11-24T19:04:03.136Z,57.46
2022-11-24T19:06:34.579Z,57.22
2022-11-24T19:09:06.873Z,57.83
2022-11-24T19:11:39.516Z,59.26
2022-11-24T19:14:09.764Z,59.92
2022-11-24T19:16:38.711Z,59.10
2022-11-24T19:19:07.232Z,60.32
2022-11-24T19:21:37.273Z,59.68
2022-11-24T19:24:10.267Z,60.76
2022-11-24T19:26:41.196Z,59.92
2022-11-24T19:29:09.947Z,62.65
2022-11-24T19:31:41.462Z,62.10
2022-11-24T19:34:10.051Z,64.13
2022-11-24T19:36:40.526Z,62.95
2022-11-24T19:39:08.956Z,61.67
2022-11-24T19:41:37.418Z,63.00
2022-11-24T19:44:08.290Z,63.16
2022-11-24T19:46:36.783Z,61.53
2022-11-24T19:49:05.388Z,60.25
2022-11-24T19:51:34.074Z,59.65
2022-11-24T19:54:02.895Z,59.90
2022-11-24T19:56:34.246Z,61.31
2022-11-24T19:59:04.207Z,61.84
2022-11-24T20:01:37.209Z,62.35
2022-11-24T20:04:08.267Z,60.79
2022-11-24T20:06:38.682Z,59.59
2022-11-24T20:09:10.129Z,58.26
2022-11-24T20:11:39.183Z,57.33
2022-11-24T20:14:08.596Z,59.28
2022-11-24T20:16:38.889Z,58.90
2022-11-24T20:19:09.441Z,59.97
2022-11-24T20:21:38.917Z,59.31
2022-11-24T20:24:12.515Z,60.29
2022-11-24T20:26:45.478Z,60.42
2022-11-24T20:29:15.275Z,59.23
2022-11-24T20:31:47.271Z,59.48
2022-11-24T20:34:16.274Z,59.89
2022-11-24T20:36:47.269Z,60.62
2022-11-24T20:39:17.492Z,62.18
2022-11-24T20:41:46.069Z,63.35
2022-11-24T20:44:15.768Z,61.76
2022-11-24T20:46:47.856Z,60.85
2022-11-24T20:49:18.502Z,59.50
2022-11-24T20:51:48.232Z,59.21
2022-11-24T20:54:18.802Z,58.83
2022-11-24T20:56:48.584Z,58.98
2022-11-24T20:59:21.579Z,60.16
2022-11-24T21:01:56.110Z,59.40
2022-11-24T21:04:27.010Z,60.11
2022-11-24T21:06:55.756Z,58.66
2022-11-24T21:09:24.836Z,58.29
2022-11-24T21:11:53.184Z,60.17
2022-11-24T21:14:21.815Z,59.93
2022-11-24T21:16:51.752Z,60.09
2022-11-24T21:19:20.475Z,58.94
2022-11-24T21:21:49.065Z,60.43
2022-11-24T21:24:19.155Z,60.29
2022-11-24T21:26:48.088Z,59.65
2022-11-24T21:29:19.693Z,59.83
2022-11-24T21:31:48.625Z,59.62
2022-11-24T21:34:19.632Z,61.32
2022-11-24T21:36:48.504Z,59.71
2022-11-24T21:39:18.747Z,59.75
2022-11-24T21:41:47.723Z,59.37
2022-11-24T21:44:16.536Z,58.54
2022-11-24T21:46:49.514Z,58.88
2022-11-24T21:49:22.627Z,57.06
2022-11-24T21:51:55.714Z,58.96
2022-11-24T21:54:25.051Z,59.35
2022-11-24T21:56:55.704Z,59.39
2022-11-24T21:59:24.359Z,60.63
2022-11-24T22:01:56.262Z,59.06
2022-11-24T22:04:28.395Z,57.67
2022-11-24T22:06:57.211Z,56.60
2022-11-24T22:09:26.574Z,56.24
2022-11-24T22:11:59.308Z,56.45
2022-11-24T22:14:28.182Z,56.38
2022-11-24T22:16:56.796Z,56.41
2022-11-24T22:19:26.367Z,56.81
2022-11-24T22:21:54.954Z,55.62
2022-11-24T22:24:27.224Z,56.31
2022-11-24T22:26:59.437Z,55.11
2022-11-24T22:29:27.938Z,55.49
2022-11-24T22:31:56.591Z,54.21
2022-11-24T22:34:26.554Z,54.79
2022-11-24T22:36:55.354Z,55.52
2022-11-24T22:39:24.633Z,55.33
2022-11-24T22:41:56.150Z,55.66
2022-11-24T22:44:24.697Z,55.77
2022-11-24T22:46:52.813Z,57.49
2022-11-24T22:49:21.553Z,57.89
2022-11-24T22:51:51.390Z,57.97
2022-11-24T22:54:19.824Z,57.31
2022-11-24T22:56:47.997Z,58.57
2022-11-24T22:59:16.875Z,59.10
2022-11-24T23:01:45.579Z,57.74
2022-11-24T23:04:14.550Z,57.18
2022-11-24T23:06:43.236Z,57.27
2022-11-24T23:09:14.101Z,57.97
2022-11-24T23:11:42.967Z,58.07
2022-11-24T23:14:15.241Z,57.55
2022-11-24T23:16:44.673Z,58.76
2022-11-24T23:19:13.293Z,57.70
2022-11-24T23:21:41.738Z,58.66
2022-11-24T23:24:11.544Z,59.93
2022-11-24T23:26:42.529Z,58.61
2022-11-24T23:29:12.787Z,59.71
2022-11-24T23:31:41.535Z,59.43
2022-11-24T23:34:10.481Z,58.96
2022-11-24T23:36:39.509Z,58.65
2022-11-24T23:39:10.401Z,58.18
2022-11-24T23:41:40.367Z,58.47
2022-11-24T23:44:09.358Z,57.96
2022-11-24T23:46:37.958Z,56.97
2022-11-24T23:49:06.568Z,57.35
2022-11-24T23:51:38.235Z,56.31
2022-11-24T23:54:09.457Z,56.44
2022-11-24T23:56:38.518Z,56.99
2022-11-24T23:59:11.415Z,56.61
